Time;durP1;ratioP1;P1;durP2;ratioP2;P2;SDS_P1;SDS_P2;PMS_P1;PMS_P2;Temp;Humidity;BMP_temperature;BMP_pressure;BME280_temperature;BME280_humidity;BME280_pressure;Samples;Min_cycle;Max_cycle;Signal;HPM_P1;HPM_P2
2022/06/28 00:01:41;;;;;;;7.88;7.38;;;;;;;;;;5057076;28;20128;-65
2022/06/28 00:04:07;;;;;;;8.60;8.00;;;;;;;;;;5053674;28;20557;-65
2022/06/28 00:06:33;;;;;;;8.73;8.13;;;;;;;;;;5054875;28;20409;-65
2022/06/28 00:08:58;;;;;;;7.82;7.32;;;;;;;;;;5053514;28;20087;-64
2022/06/28 00:11:24;;;;;;;9.00;8.25;;;;;;;;;;5057946;28;20025;-65
2022/06/28 00:13:49;;;;;;;8.38;7.88;;;;;;;;;;5055610;28;20414;-66
2022/06/28 00:16:16;;;;;;;7.93;7.43;;;;;;;;;;5057748;28;20045;-65
2022/06/28 00:18:43;;;;;;;8.13;7.63;;;;;;;;;;5057080;28;20021;-65
2022/06/28 00:21:09;;;;;;;7.80;7.10;;;;;;;;;;5055867;28;20107;-66
2022/06/28 00:23:36;;;;;;;7.18;6.68;;;;;;;;;;5055248;28;20033;-66
2022/06/28 00:26:03;;;;;;;7.50;7.00;;;;;;;;;;5058521;28;20027;-66
2022/06/28 00:28:28;;;;;;;7.45;6.95;;;;;;;;;;5054996;28;20458;-66
2022/06/28 00:30:54;;;;;;;8.63;8.10;;;;;;;;;;5054217;28;20102;-65
2022/06/28 00:33:19;;;;;;;8.25;7.65;;;;;;;;;;5054778;28;20116;-66
2022/06/28 00:35:45;;;;;;;9.02;8.43;;;;;;;;;;5053374;28;20648;-67
2022/06/28 00:38:11;;;;;;;8.30;7.80;;;;;;;;;;5056975;28;20112;-66
2022/06/28 00:40:53;;;;;;;9.02;8.15;;;;;;;;;;5052123;28;20515;-66
2022/06/28 00:43:20;;;;;;;8.52;7.97;;;;;;;;;;5055892;28;20453;-66
2022/06/28 00:45:46;;;;;;;8.15;7.45;;;;;;;;;;5053458;28;20025;-67
2022/06/28 00:48:13;;;;;;;7.72;7.22;;;;;;;;;;5054252;28;20051;-66
2022/06/28 00:50:39;;;;;;;7.70;7.20;;;;;;;;;;5054323;28;20041;-65
2022/06/28 00:53:08;;;;;;;8.48;7.88;;;;;;;;;;5053050;28;20043;-65
2022/06/28 00:55:34;;;;;;;9.07;8.27;;;;;;;;;;5053253;28;20111;-66
2022/06/28 00:58:00;;;;;;;8.95;8.30;;;;;;;;;;5055077;28;20043;-66
2022/06/28 01:00:27;;;;;;;8.95;8.25;;;;;;;;;;5055269;28;20025;-66
2022/06/28 01:02:53;;;;;;;8.30;7.70;;;;;;;;;;5051985;28;20039;-65
2022/06/28 01:05:19;;;;;;;7.63;7.13;;;;;;;;;;5054156;28;20034;-66
2022/06/28 01:07:45;;;;;;;8.93;8.32;;;;;;;;;;5054838;28;20029;-66
2022/06/28 01:10:10;;;;;;;7.40;6.90;;;;;;;;;;5052899;28;20083;-65
2022/06/28 01:12:36;;;;;;;8.68;8.07;;;;;;;;;;5054876;28;20114;-65
2022/06/28 01:15:01;;;;;;;8.85;8.27;;;;;;;;;;5055242;28;20037;-65
2022/06/28 01:17:27;;;;;;;8.25;7.75;;;;;;;;;;5053622;28;20033;-65
2022/06/28 01:19:52;;;;;;;7.85;7.35;;;;;;;;;;5053243;28;20108;-65
2022/06/28 01:22:19;;;;;;;8.70;8.13;;;;;;;;;;5051281;28;20985;-64
2022/06/28 01:24:44;;;;;;;8.70;8.10;;;;;;;;;;5056878;28;20043;-65
2022/06/28 01:27:12;;;;;;;8.77;8.18;;;;;;;;;;5061041;28;20501;-66
2022/06/28 01:29:37;;;;;;;7.93;7.43;;;;;;;;;;5054873;28;21065;-66
2022/06/28 01:32:03;;;;;;;7.93;7.43;;;;;;;;;;5058657;28;20562;-65
2022/06/28 01:34:29;;;;;;;9.57;7.65;;;;;;;;;;5058542;28;20087;-65
2022/06/28 01:36:54;;;;;;;9.15;8.55;;;;;;;;;;5058648;28;20412;-65
2022/06/28 01:39:19;;;;;;;8.43;7.90;;;;;;;;;;5059572;28;20397;-66
2022/06/28 01:41:45;;;;;;;10.07;9.20;;;;;;;;;;5058265;28;20395;-66
2022/06/28 01:44:11;;;;;;;9.07;8.48;;;;;;;;;;5060725;28;20472;-66
2022/06/28 01:46:38;;;;;;;8.70;8.10;;;;;;;;;;5059613;28;20036;-65
2022/06/28 01:49:05;;;;;;;9.27;8.68;;;;;;;;;;5056235;28;20119;-65
2022/06/28 01:51:31;;;;;;;9.30;8.70;;;;;;;;;;5055972;28;20627;-65
2022/06/28 01:53:57;;;;;;;9.38;8.77;;;;;;;;;;5061748;28;20067;-65
2022/06/28 01:56:23;;;;;;;9.23;8.63;;;;;;;;;;5056677;28;20021;-65
2022/06/28 01:58:48;;;;;;;9.73;9.13;;;;;;;;;;5059287;28;20044;-66
2022/06/28 02:01:14;;;;;;;9.60;9.00;;;;;;;;;;5057314;28;20432;-66
2022/06/28 02:03:41;;;;;;;9.20;8.52;;;;;;;;;;5056468;28;20116;-66
2022/06/28 02:06:06;;;;;;;9.60;9.00;;;;;;;;;;5057325;28;20032;-66
2022/06/28 02:08:35;;;;;;;9.18;8.57;;;;;;;;;;5057392;28;20521;-66
2022/06/28 02:11:03;;;;;;;9.27;8.68;;;;;;;;;;5059513;28;20041;-66
2022/06/28 02:13:29;;;;;;;9.02;8.43;;;;;;;;;;5056125;28;20075;-66
2022/06/28 02:15:55;;;;;;;8.95;8.35;;;;;;;;;;5056472;28;20055;-67
2022/06/28 02:18:20;;;;;;;9.23;8.63;;;;;;;;;;5059671;28;20190;-67
2022/06/28 02:20:46;;;;;;;11.50;10.73;;;;;;;;;;5058443;28;20032;-67
2022/06/28 02:23:12;;;;;;;9.13;8.55;;;;;;;;;;5058965;28;20029;-67
2022/06/28 02:25:38;;;;;;;9.10;8.50;;;;;;;;;;5056946;28;20374;-67
2022/06/28 02:28:03;;;;;;;9.43;8.82;;;;;;;;;;5056518;28;20025;-67
2022/06/28 02:30:29;;;;;;;9.20;8.60;;;;;;;;;;5056609;28;20033;-67
2022/06/28 02:32:54;;;;;;;10.13;9.52;;;;;;;;;;5056196;28;20037;-67
2022/06/28 02:40:58;;;;;;;9.60;9.00;;;;;;;;;;5009516;28;20061;-66
2022/06/28 02:43:23;;;;;;;8.93;8.32;;;;;;;;;;5057166;28;20033;-66
2022/06/28 02:45:49;;;;;;;10.25;9.63;;;;;;;;;;5057464;28;20024;-66
2022/06/28 02:48:16;;;;;;;10.23;9.52;;;;;;;;;;5058227;28;20044;-66
2022/06/28 02:50:41;;;;;;;9.93;9.32;;;;;;;;;;5055702;28;20043;-66
2022/06/28 02:53:06;;;;;;;10.65;9.95;;;;;;;;;;5058899;28;20024;-66
2022/06/28 02:55:32;;;;;;;9.68;9.07;;;;;;;;;;5057850;28;20083;-66
2022/06/28 02:57:57;;;;;;;10.82;10.13;;;;;;;;;;5057925;28;20056;-66
2022/06/28 03:00:22;;;;;;;9.85;9.25;;;;;;;;;;5055544;28;20163;-66
2022/06/28 03:02:49;;;;;;;9.35;8.75;;;;;;;;;;5055189;28;20082;-66
2022/06/28 03:05:17;;;;;;;9.57;8.98;;;;;;;;;;5058329;28;20447;-66
2022/06/28 03:07:43;;;;;;;8.90;8.30;;;;;;;;;;5054725;28;20077;-66
2022/06/28 03:10:10;;;;;;;8.55;8.00;;;;;;;;;;5056517;28;20029;-66
2022/06/28 03:12:36;;;;;;;9.10;8.50;;;;;;;;;;5053555;28;20405;-66
2022/06/28 03:15:02;;;;;;;11.23;10.52;;;;;;;;;;5053455;28;20039;-66
2022/06/28 03:17:28;;;;;;;10.75;9.98;;;;;;;;;;5054114;28;20464;-66
2022/06/28 03:19:53;;;;;;;10.10;9.50;;;;;;;;;;5057089;28;20063;-66
2022/06/28 03:22:18;;;;;;;10.57;9.88;;;;;;;;;;5057527;28;20028;-66
2022/06/28 03:24:44;;;;;;;9.85;9.25;;;;;;;;;;5053509;28;20025;-67
2022/06/28 03:27:09;;;;;;;8.93;8.32;;;;;;;;;;5053165;28;20029;-67
2022/06/28 03:29:35;;;;;;;9.32;8.73;;;;;;;;;;5055909;28;20032;-66
2022/06/28 03:32:00;;;;;;;9.63;9.02;;;;;;;;;;5056184;28;20753;-68
2022/06/28 03:34:26;;;;;;;8.27;7.78;;;;;;;;;;5055136;28;20675;-66
2022/06/28 03:36:51;;;;;;;9.98;9.35;;;;;;;;;;5055243;28;20033;-66
2022/06/28 03:39:17;;;;;;;9.50;8.90;;;;;;;;;;5054867;28;20056;-66
2022/06/28 03:41:43;;;;;;;9.07;8.48;;;;;;;;;;5053492;28;20389;-66
2022/06/28 03:44:08;;;;;;;8.60;8.00;;;;;;;;;;5051372;28;20032;-67
2022/06/28 03:46:33;;;;;;;9.77;9.18;;;;;;;;;;5052945;28;20048;-68
2022/06/28 03:48:59;;;;;;;9.50;8.90;;;;;;;;;;5052528;28;20020;-67
2022/06/28 03:51:24;;;;;;;9.63;9.02;;;;;;;;;;5055862;28;20031;-65
2022/06/28 03:53:50;;;;;;;9.25;8.65;;;;;;;;;;5055442;28;20409;-67
2022/06/28 03:56:15;;;;;;;9.45;8.85;;;;;;;;;;5055595;28;20127;-67
2022/06/28 03:58:41;;;;;;;9.77;9.18;;;;;;;;;;5055257;28;20033;-67
2022/06/28 04:01:06;;;;;;;9.52;8.93;;;;;;;;;;5053831;28;20045;-66
2022/06/28 04:03:31;;;;;;;10.25;9.55;;;;;;;;;;5054300;28;20415;-67
2022/06/28 04:05:57;;;;;;;9.50;8.80;;;;;;;;;;5053850;28;20052;-66
2022/06/28 04:08:22;;;;;;;9.07;8.48;;;;;;;;;;5056061;28;20036;-66
2022/06/28 04:10:48;;;;;;;9.57;8.98;;;;;;;;;;5054017;28;20989;-66
2022/06/28 04:13:14;;;;;;;7.55;7.05;;;;;;;;;;5054648;28;20119;-66
2022/06/28 04:15:39;;;;;;;8.15;7.65;;;;;;;;;;5058490;28;20306;-67
2022/06/28 04:18:06;;;;;;;9.05;8.45;;;;;;;;;;5058228;28;20527;-67
2022/06/28 04:20:33;;;;;;;8.63;7.93;;;;;;;;;;5057463;28;20020;-66
2022/06/28 04:22:59;;;;;;;9.02;8.43;;;;;;;;;;5056761;28;20113;-66
2022/06/28 04:25:24;;;;;;;8.00;7.50;;;;;;;;;;5054787;28;20545;-66
2022/06/28 04:27:51;;;;;;;8.27;7.78;;;;;;;;;;5057376;28;20036;-66
2022/06/28 04:30:17;;;;;;;8.73;8.13;;;;;;;;;;5057474;28;20043;-67
2022/06/28 04:32:42;;;;;;;8.85;8.25;;;;;;;;;;5054408;28;20186;-67
2022/06/28 04:35:08;;;;;;;9.20;8.60;;;;;;;;;;5054627;28;20044;-67
2022/06/28 04:37:33;;;;;;;9.65;8.95;;;;;;;;;;5058010;28;20024;-66
2022/06/28 04:39:58;;;;;;;8.48;7.93;;;;;;;;;;5054853;28;20127;-67
2022/06/28 04:42:24;;;;;;;9.50;8.90;;;;;;;;;;5054577;28;20287;-67
2022/06/28 04:44:49;;;;;;;9.18;8.57;;;;;;;;;;5055586;28;20032;-67
2022/06/28 04:47:15;;;;;;;10.25;9.55;;;;;;;;;;5055209;28;20451;-66
2022/06/28 04:49:40;;;;;;;9.35;8.75;;;;;;;;;;5055347;28;20365;-67
2022/06/28 04:52:06;;;;;;;10.77;10.07;;;;;;;;;;5058174;28;20028;-67
2022/06/28 04:54:31;;;;;;;10.90;10.20;;;;;;;;;;5055667;28;20107;-68
2022/06/28 04:56:56;;;;;;;9.68;9.07;;;;;;;;;;5053537;28;20036;-67
2022/06/28 04:59:22;;;;;;;9.02;8.43;;;;;;;;;;5052347;28;20033;-66
2022/06/28 05:01:47;;;;;;;9.15;8.55;;;;;;;;;;5056089;28;20110;-66
2022/06/28 05:04:13;;;;;;;9.75;8.98;;;;;;;;;;5053703;28;20120;-66
2022/06/28 05:06:38;;;;;;;11.73;10.88;;;;;;;;;;5051472;28;20360;-65
2022/06/28 05:09:03;;;;;;;10.40;9.73;;;;;;;;;;5052269;28;20079;-66
2022/06/28 05:11:29;;;;;;;11.95;11.25;;;;;;;;;;5052969;28;20024;-65
2022/06/28 05:13:55;;;;;;;11.77;11.05;;;;;;;;;;5053994;28;20025;-66
2022/06/28 05:16:21;;;;;;;12.32;11.52;;;;;;;;;;5057617;28;20227;-66
2022/06/28 05:18:46;;;;;;;12.43;11.52;;;;;;;;;;5052836;28;20414;-65
2022/06/28 05:21:11;;;;;;;12.60;11.63;;;;;;;;;;5050799;28;20054;-59
2022/06/28 05:23:37;;;;;;;9.43;8.82;;;;;;;;;;5053005;28;20116;-59
2022/06/28 05:26:03;;;;;;;9.57;8.98;;;;;;;;;;5054659;28;20117;-59
2022/06/28 05:28:28;;;;;;;9.20;8.60;;;;;;;;;;5051810;28;20044;-59
2022/06/28 05:30:54;;;;;;;8.40;7.80;;;;;;;;;;5048625;28;20535;-59
2022/06/28 05:33:19;;;;;;;9.63;9.02;;;;;;;;;;5047817;28;20453;-59
2022/06/28 05:35:45;;;;;;;9.55;8.95;;;;;;;;;;5051704;28;20029;-59
2022/06/28 05:38:10;;;;;;;8.00;7.50;;;;;;;;;;5051297;28;20091;-59
2022/06/28 05:40:36;;;;;;;8.60;8.00;;;;;;;;;;5047554;28;20115;-59
2022/06/28 05:43:01;;;;;;;8.88;8.18;;;;;;;;;;5050622;28;20041;-59
2022/06/28 05:45:27;;;;;;;9.32;8.63;;;;;;;;;;5051043;28;20454;-59
2022/06/28 05:47:52;;;;;;;9.05;8.45;;;;;;;;;;5048950;28;20051;-59
2022/06/28 05:50:19;;;;;;;9.10;8.50;;;;;;;;;;5050810;28;20068;-60
2022/06/28 05:52:46;;;;;;;9.25;8.65;;;;;;;;;;5049788;28;20098;-60
2022/06/28 05:55:11;;;;;;;10.10;9.45;;;;;;;;;;5051228;28;20459;-60
2022/06/28 05:57:36;;;;;;;10.60;9.90;;;;;;;;;;5049691;28;20048;-60
2022/06/28 06:00:03;;;;;;;9.30;8.60;;;;;;;;;;5051468;28;20868;-60
2022/06/28 06:02:28;;;;;;;11.88;11.07;;;;;;;;;;5049395;28;20517;-60
2022/06/28 06:04:55;;;;;;;10.50;9.82;;;;;;;;;;5054289;28;20070;-60
2022/06/28 06:07:21;;;;;;;12.50;11.68;;;;;;;;;;5053475;28;20024;-60
2022/06/28 06:09:46;;;;;;;10.98;10.27;;;;;;;;;;5054475;28;20032;-59
2022/06/28 06:12:12;;;;;;;11.25;10.55;;;;;;;;;;5054606;28;20040;-60
2022/06/28 06:14:37;;;;;;;9.27;8.68;;;;;;;;;;5053732;28;20144;-60
2022/06/28 06:17:03;;;;;;;9.98;9.38;;;;;;;;;;5053930;28;20086;-60
2022/06/28 06:19:29;;;;;;;11.30;10.60;;;;;;;;;;5050804;28;20028;-60
2022/06/28 06:21:55;;;;;;;9.38;8.77;;;;;;;;;;5053478;28;20035;-60
2022/06/28 06:24:20;;;;;;;7.93;7.43;;;;;;;;;;5055636;28;20036;-61
2022/06/28 06:26:46;;;;;;;9.20;8.60;;;;;;;;;;5056266;28;20033;-60
2022/06/28 06:29:12;;;;;;;10.18;9.48;;;;;;;;;;5056701;28;20029;-60
2022/06/28 06:31:37;;;;;;;9.70;9.10;;;;;;;;;;5054309;28;20045;-60
2022/06/28 06:34:03;;;;;;;9.00;8.40;;;;;;;;;;5052038;28;20043;-60
2022/06/28 06:36:28;;;;;;;8.73;8.13;;;;;;;;;;5054905;28;20120;-60
2022/06/28 06:38:54;;;;;;;10.20;9.50;;;;;;;;;;5060780;28;20029;-61
2022/06/28 06:41:20;;;;;;;9.10;8.50;;;;;;;;;;5059756;28;20387;-61
2022/06/28 06:43:45;;;;;;;9.27;8.52;;;;;;;;;;5054616;28;20745;-61
2022/06/28 06:46:11;;;;;;;8.18;7.68;;;;;;;;;;5055745;28;20040;-62
2022/06/28 06:48:36;;;;;;;9.98;9.35;;;;;;;;;;5055186;28;20025;-62
2022/06/28 06:51:02;;;;;;;9.63;9.02;;;;;;;;;;5056272;28;20029;-62
2022/06/28 06:53:29;;;;;;;11.38;10.68;;;;;;;;;;5053551;28;20061;-62
2022/06/28 06:55:54;;;;;;;9.75;9.15;;;;;;;;;;5051153;28;20102;-62
2022/06/28 06:58:20;;;;;;;10.35;9.75;;;;;;;;;;5049794;28;20210;-61
2022/06/28 07:00:45;;;;;;;10.43;9.82;;;;;;;;;;5046701;28;20045;-62
2022/06/28 07:03:10;;;;;;;11.32;10.63;;;;;;;;;;5050840;28;20028;-62
2022/06/28 07:05:36;;;;;;;12.52;11.73;;;;;;;;;;5056252;28;20060;-62
2022/06/28 07:08:02;;;;;;;12.63;11.70;;;;;;;;;;5060702;28;20047;-62
2022/06/28 07:10:27;;;;;;;11.18;10.48;;;;;;;;;;5050055;28;20048;-62
2022/06/28 07:12:52;;;;;;;9.68;9.07;;;;;;;;;;5053917;28;20043;-62
2022/06/28 07:15:18;;;;;;;10.27;9.68;;;;;;;;;;5055205;28;20097;-61
2022/06/28 07:17:43;;;;;;;12.93;12.13;;;;;;;;;;5056870;28;20093;-61
2022/06/28 07:20:10;;;;;;;12.02;11.32;;;;;;;;;;5053333;28;20036;-61
2022/06/28 07:22:35;;;;;;;12.02;11.32;;;;;;;;;;5053667;28;20199;-61
2022/06/28 07:25:01;;;;;;;9.80;9.20;;;;;;;;;;5057159;28;20024;-61
2022/06/28 07:27:27;;;;;;;10.18;9.57;;;;;;;;;;5055651;28;20111;-62
2022/06/28 07:29:52;;;;;;;13.75;12.95;;;;;;;;;;5055044;28;20033;-62
2022/06/28 07:32:18;;;;;;;18.50;17.50;;;;;;;;;;5055455;28;20555;-61
2022/06/28 07:34:44;;;;;;;18.35;17.35;;;;;;;;;;5054869;28;20648;-61
2022/06/28 07:37:10;;;;;;;16.35;15.45;;;;;;;;;;5054249;28;20029;-61
2022/06/28 07:39:36;;;;;;;20.08;18.92;;;;;;;;;;5052708;28;20506;-61
2022/06/28 07:42:01;;;;;;;21.88;20.67;;;;;;;;;;5057747;28;20024;-61
2022/06/28 07:44:26;;;;;;;19.65;18.58;;;;;;;;;;5055740;28;20621;-61
2022/06/28 07:46:52;;;;;;;16.15;15.25;;;;;;;;;;5055156;28;20122;-63
2022/06/28 07:49:18;;;;;;;21.10;19.95;;;;;;;;;;5055678;28;20032;-61
2022/06/28 07:54:27;;;;;;;22.73;21.50;;;;;;;;;;5057330;28;20039;-61
2022/06/28 07:56:52;;;;;;;16.52;15.60;;;;;;;;;;5054657;28;20950;-61
2022/06/28 07:59:18;;;;;;;23.50;22.17;;;;;;;;;;5052725;28;20059;-61
2022/06/28 08:01:43;;;;;;;26.48;25.08;;;;;;;;;;5050322;28;20481;-61
2022/06/28 08:04:11;;;;;;;25.80;24.42;;;;;;;;;;5053484;28;20075;-61
2022/06/28 08:06:37;;;;;;;25.05;23.65;;;;;;;;;;5055138;28;20485;-61
2022/06/28 08:09:02;;;;;;;19.90;18.70;;;;;;;;;;5055133;28;20048;-61
2022/06/28 08:11:28;;;;;;;24.25;22.95;;;;;;;;;;5055929;28;20040;-67
2022/06/28 08:13:54;;;;;;;23.38;22.15;;;;;;;;;;5038015;28;20467;-67
2022/06/28 08:16:20;;;;;;;25.50;24.17;;;;;;;;;;5056568;28;20039;-67
2022/06/28 08:18:46;;;;;;;26.05;24.65;;;;;;;;;;5052450;28;20437;-67
2022/06/28 08:21:11;;;;;;;18.15;17.15;;;;;;;;;;5053513;28;20028;-66
2022/06/28 08:23:37;;;;;;;17.38;16.38;;;;;;;;;;5051380;28;20481;-66
2022/06/28 08:26:02;;;;;;;14.73;13.90;;;;;;;;;;5053216;28;20040;-66
2022/06/28 08:28:27;;;;;;;16.40;15.50;;;;;;;;;;5053424;28;20040;-65
2022/06/28 08:30:53;;;;;;;27.30;25.85;;;;;;;;;;5052890;28;20056;-66
2022/06/28 08:33:18;;;;;;;16.58;15.68;;;;;;;;;;5056672;28;20079;-64
2022/06/28 08:35:45;;;;;;;23.55;22.27;;;;;;;;;;5056388;28;20081;-66
2022/06/28 08:38:10;;;;;;;31.75;30.08;;;;;;;;;;5052581;28;20116;-66
2022/06/28 08:40:36;;;;;;;28.63;27.13;;;;;;;;;;5054011;28;20040;-66
2022/06/28 08:43:06;;;;;;;28.15;26.70;;;;;;;;;;5053456;28;20113;-66
2022/06/28 08:45:32;;;;;;;29.97;28.37;;;;;;;;;;5052486;28;20115;-66
2022/06/28 08:48:04;;;;;;;24.83;23.30;;;;;;;;;;5055347;28;20297;-66
2022/06/28 08:50:37;;;;;;;41.70;39.60;;;;;;;;;;5052615;28;20032;-66
2022/06/28 08:53:08;;;;;;;22.35;21.15;;;;;;;;;;5054008;28;20415;-66
2022/06/28 08:55:35;;;;;;;27.77;26.30;;;;;;;;;;5054419;28;20047;-65
2022/06/28 08:58:04;;;;;;;45.42;43.10;;;;;;;;;;5054176;28;20343;-66
2022/06/28 09:00:30;;;;;;;33.53;31.80;;;;;;;;;;5053228;28;20024;-65
2022/06/28 09:02:57;;;;;;;45.22;42.92;;;;;;;;;;5053463;28;20097;-66
2022/06/28 09:05:25;;;;;;;48.08;45.67;;;;;;;;;;5051886;28;20481;-66
2022/06/28 09:07:51;;;;;;;47.17;44.83;;;;;;;;;;5049387;28;20036;-66
2022/06/28 09:10:17;;;;;;;47.13;44.75;;;;;;;;;;5052005;28;20056;-64
2022/06/28 09:12:43;;;;;;;43.78;41.58;;;;;;;;;;5050310;28;20453;-65
2022/06/28 09:15:09;;;;;;;44.22;42.03;;;;;;;;;;5052932;28;20124;-65
2022/06/28 09:17:35;;;;;;;38.90;36.90;;;;;;;;;;5048488;28;20050;-65
2022/06/28 09:20:08;;;;;;;60.45;57.45;;;;;;;;;;5051340;28;20107;-65
2022/06/28 09:22:42;;;;;;;51.55;48.95;;;;;;;;;;5052357;28;20454;-65
2022/06/28 09:25:13;;;;;;;64.95;61.72;;;;;;;;;;5055221;28;20017;-65
2022/06/28 09:27:40;;;;;;;67.72;64.38;;;;;;;;;;5047718;28;20036;-65
2022/06/28 09:30:09;;;;;;;62.95;59.80;;;;;;;;;;5052400;28;20115;-65
2022/06/28 09:32:36;;;;;;;53.30;50.63;;;;;;;;;;5053575;28;20033;-65
2022/06/28 09:35:07;;;;;;;73.43;69.80;;;;;;;;;;5053063;28;20155;-65
2022/06/28 09:37:32;;;;;;;75.93;72.18;;;;;;;;;;5049928;28;20033;-65
2022/06/28 09:39:57;;;;;;;70.25;66.80;;;;;;;;;;5048046;28;20276;-66
2022/06/28 09:42:23;;;;;;;67.68;64.28;;;;;;;;;;5046728;28;20025;-67
2022/06/28 09:44:51;;;;;;;63.78;60.60;;;;;;;;;;5053911;28;20028;-65
2022/06/28 09:47:17;;;;;;;66.20;62.90;;;;;;;;;;5056086;28;20035;-66
2022/06/28 09:49:46;;;;;;;71.38;67.85;;;;;;;;;;5053661;28;20446;-65
2022/06/28 09:52:12;;;;;;;75.37;71.67;;;;;;;;;;5054185;28;20040;-66
2022/06/28 09:54:41;;;;;;;86.97;82.72;;;;;;;;;;5055912;28;20102;-66
2022/06/28 09:57:11;;;;;;;33.97;32.22;;;;;;;;;;5052726;28;20044;-65
2022/06/28 09:59:37;;;;;;;47.83;45.42;;;;;;;;;;5057947;28;20043;-66
2022/06/28 10:02:03;;;;;;;52.88;50.22;;;;;;;;;;5055491;28;20494;-65
2022/06/28 10:04:29;;;;;;;39.33;37.33;;;;;;;;;;5056606;28;20032;-65
2022/06/28 10:06:54;;;;;;;65.97;62.67;;;;;;;;;;5053523;28;20507;-65
2022/06/28 10:09:21;;;;;;;70.95;67.43;;;;;;;;;;5055500;28;20032;-66
2022/06/28 10:17:29;;;;;;;69.70;66.22;;;;;;;;;;5058934;28;20132;-65
2022/06/28 10:19:57;;;;;;;65.78;62.50;;;;;;;;;;5054068;28;20029;-66
2022/06/28 10:22:23;;;;;;;75.65;71.90;;;;;;;;;;5053843;28;20055;-65
2022/06/28 10:25:00;;;;;;;69.88;66.40;;;;;;;;;;5055745;28;20363;-65
2022/06/28 10:27:27;;;;;;;51.83;49.22;;;;;;;;;;5053170;28;20510;-66
2022/06/28 10:30:00;;;;;;;42.10;39.97;;;;;;;;;;5052093;28;20386;-66
2022/06/28 10:32:38;;;;;;;94.85;90.18;;;;;;;;;;5056128;28;20029;-65
2022/06/28 10:35:04;;;;;;;97.35;92.55;;;;;;;;;;5053649;28;20394;-65
2022/06/28 10:37:29;;;;;;;42.20;40.05;;;;;;;;;;5052479;28;20032;-65
2022/06/28 10:40:23;;;;;;;37.40;35.50;;;;;;;;;;5039639;28;20367;-64
2022/06/28 10:42:53;;;;;;;46.47;44.13;;;;;;;;;;5052013;28;20036;-64
2022/06/28 10:45:21;;;;;;;31.80;30.13;;;;;;;;;;5054731;28;20029;-64
2022/06/28 10:48:10;;;;;;;37.45;35.55;;;;;;;;;;5049398;28;20040;-65
2022/06/28 10:50:58;;;;;;;42.30;40.17;;;;;;;;;;5047600;28;20030;-65
2022/06/28 10:53:24;;;;;;;50.60;47.92;;;;;;;;;;5054112;28;20641;-64
2022/06/28 10:56:20;;;;;;;47.60;45.17;;;;;;;;;;5056058;28;20107;-66
2022/06/28 10:58:59;;;;;;;42.85;40.67;;;;;;;;;;5051284;28;20052;-65
2022/06/28 11:01:40;;;;;;;52.92;50.28;;;;;;;;;;5051487;28;20041;-66
2022/06/28 11:04:11;;;;;;;53.55;50.85;;;;;;;;;;5051478;28;20033;-66
2022/06/28 11:06:43;;;;;;;59.05;56.10;;;;;;;;;;5053529;28;20046;-66
2022/06/28 11:09:17;;;;;;;63.20;60.05;;;;;;;;;;5052099;28;20036;-66
2022/06/28 11:12:14;;;;;;;53.08;50.38;;;;;;;;;;5054787;28;20029;-64
2022/06/28 11:14:54;;;;;;;46.55;44.20;;;;;;;;;;5056283;28;20480;-66
2022/06/28 11:17:25;;;;;;;71.85;68.25;;;;;;;;;;5052727;28;20063;-65
2022/06/28 11:20:00;;;;;;;75.70;71.97;;;;;;;;;;5057655;28;20049;-66
2022/06/28 11:22:31;;;;;;;72.95;69.30;;;;;;;;;;5056396;28;20062;-65
2022/06/28 11:25:02;;;;;;;66.93;63.63;;;;;;;;;;5056069;28;20048;-65
2022/06/28 11:27:27;;;;;;;78.88;74.97;;;;;;;;;;5054836;28;20043;-66
2022/06/28 11:30:14;;;;;;;65.32;62.10;;;;;;;;;;5055535;28;20028;-65
2022/06/28 11:32:43;;;;;;;85.35;81.13;;;;;;;;;;5055902;28;20032;-67
2022/06/28 11:35:13;;;;;;;58.17;54.97;;;;;;;;;;5055858;28;20028;-66
2022/06/28 11:37:53;;;;;;;89.25;84.88;;;;;;;;;;5054983;28;20040;-65
2022/06/28 11:40:23;;;;;;;54.85;52.10;;;;;;;;;;5057367;28;20029;-66
2022/06/28 11:43:07;;;;;;;61.90;58.80;;;;;;;;;;5058152;28;20047;-65
2022/06/28 11:45:41;;;;;;;59.40;56.42;;;;;;;;;;5057260;28;20058;-65
2022/06/28 11:48:27;;;;;;;60.60;57.60;;;;;;;;;;5056681;28;20127;-65
2022/06/28 11:50:55;;;;;;;63.17;60.03;;;;;;;;;;5054101;28;20114;-65
2022/06/28 11:53:22;;;;;;;55.30;52.53;;;;;;;;;;5056370;28;20123;-65
2022/06/28 11:55:50;;;;;;;59.88;56.88;;;;;;;;;;5056165;28;20560;-65
2022/06/28 11:58:32;;;;;;;59.15;56.20;;;;;;;;;;5056347;28;20036;-66
2022/06/28 12:01:10;;;;;;;63.95;60.72;;;;;;;;;;5056226;28;20052;-65
2022/06/28 12:03:55;;;;;;;68.60;65.20;;;;;;;;;;5060050;28;20048;-66
2022/06/28 12:06:23;;;;;;;63.38;60.20;;;;;;;;;;5054452;28;20029;-65
2022/06/28 12:08:57;;;;;;;77.70;73.85;;;;;;;;;;5055755;28;21762;-65
2022/06/28 12:11:40;;;;;;;61.83;58.75;;;;;;;;;;5049412;28;20123;-66
2022/06/28 12:14:14;;;;;;;76.88;73.05;;;;;;;;;;5049209;28;20033;-66
2022/06/28 12:16:47;;;;;;;56.53;53.70;;;;;;;;;;5053245;28;20039;-66
2022/06/28 12:19:30;;;;;;;79.32;75.43;;;;;;;;;;5052337;28;20115;-64
2022/06/28 12:22:17;;;;;;;74.80;71.10;;;;;;;;;;5056684;28;20357;-66
2022/06/28 12:24:44;;;;;;;56.95;54.08;;;;;;;;;;5054252;28;20096;-65
2022/06/28 12:27:12;;;;;;;76.22;72.43;;;;;;;;;;5049856;28;20667;-65
2022/06/28 12:29:37;;;;;;;73.53;69.93;;;;;;;;;;5050658;28;20037;-64
2022/06/28 12:32:04;;;;;;;72.22;68.63;;;;;;;;;;5052846;28;20089;-66
2022/06/28 12:34:29;;;;;;;69.53;65.93;;;;;;;;;;5052673;28;20032;-65
2022/06/28 12:36:54;;;;;;;88.68;84.30;;;;;;;;;;5055795;28;20036;-65
2022/06/28 12:39:20;;;;;;;72.65;69.05;;;;;;;;;;5052384;28;20063;-65
2022/06/28 12:41:48;;;;;;;67.85;64.47;;;;;;;;;;5054407;28;20120;-66
2022/06/28 12:44:14;;;;;;;75.35;71.63;;;;;;;;;;5051781;28;20495;-66
2022/06/28 12:46:40;;;;;;;78.20;74.32;;;;;;;;;;5048860;28;20085;-64
2022/06/28 12:49:05;;;;;;;88.60;84.22;;;;;;;;;;5052127;28;20029;-65
2022/06/28 12:51:30;;;;;;;78.82;74.95;;;;;;;;;;5046275;28;20040;-66
2022/06/28 12:53:56;;;;;;;47.90;45.47;;;;;;;;;;5053386;28;20024;-66
2022/06/28 12:56:21;;;;;;;78.47;74.57;;;;;;;;;;5055144;28;20367;-66
2022/06/28 12:58:48;;;;;;;83.72;79.63;;;;;;;;;;5053623;28;20495;-66
2022/06/28 13:01:13;;;;;;;76.93;73.07;;;;;;;;;;5056134;28;20032;-66
2022/06/28 13:03:40;;;;;;;65.00;61.75;;;;;;;;;;5053185;28;20029;-66
2022/06/28 13:06:06;;;;;;;73.72;70.03;;;;;;;;;;5053098;28;20362;-66
2022/06/28 13:08:32;;;;;;;66.32;63.03;;;;;;;;;;5052679;28;20219;-66
2022/06/28 13:10:57;;;;;;;68.85;65.45;;;;;;;;;;5054809;28;20293;-66
2022/06/28 13:13:22;;;;;;;66.38;63.08;;;;;;;;;;5054591;28;20086;-66
2022/06/28 13:15:48;;;;;;;49.92;47.38;;;;;;;;;;5056105;28;20112;-66
2022/06/28 13:18:14;;;;;;;82.40;78.32;;;;;;;;;;5056435;28;20028;-66
2022/06/28 13:20:39;;;;;;;95.75;91.03;;;;;;;;;;5052332;28;20451;-66
2022/06/28 13:23:05;;;;;;;85.43;81.20;;;;;;;;;;5053612;28;20996;-66
2022/06/28 13:25:30;;;;;;;49.83;47.30;;;;;;;;;;5050422;28;20033;-66
2022/06/28 13:27:56;;;;;;;64.43;61.22;;;;;;;;;;5054366;28;20040;-66
2022/06/28 13:30:21;;;;;;;45.03;42.75;;;;;;;;;;5050522;28;20099;-67
2022/06/28 13:32:47;;;;;;;58.60;55.67;;;;;;;;;;5050196;28;20414;-66
2022/06/28 13:35:12;;;;;;;34.53;32.72;;;;;;;;;;5052659;28;20033;-66
2022/06/28 13:37:38;;;;;;;33.92;32.13;;;;;;;;;;5053545;28;20128;-66
2022/06/28 13:40:04;;;;;;;54.17;51.47;;;;;;;;;;5051525;28;20512;-65
2022/06/28 13:42:29;;;;;;;31.55;29.95;;;;;;;;;;5049965;28;20032;-65
2022/06/28 13:44:55;;;;;;;31.95;30.27;;;;;;;;;;5050959;28;20044;-66
2022/06/28 13:47:20;;;;;;;42.20;40.05;;;;;;;;;;5050523;28;20033;-66
2022/06/28 13:49:45;;;;;;;31.70;30.10;;;;;;;;;;5051057;28;20037;-66
2022/06/28 13:52:11;;;;;;;30.58;28.98;;;;;;;;;;5053328;28;20032;-65
2022/06/28 13:54:36;;;;;;;55.08;52.30;;;;;;;;;;5049716;28;20032;-65
2022/06/28 13:57:02;;;;;;;46.70;44.35;;;;;;;;;;5049817;28;20056;-66
2022/06/28 13:59:27;;;;;;;41.78;39.67;;;;;;;;;;5050133;28;20048;-66
2022/06/28 14:01:53;;;;;;;60.58;57.58;;;;;;;;;;5052274;28;20048;-66
2022/06/28 14:04:18;;;;;;;49.05;46.55;;;;;;;;;;5050898;28;20107;-66
2022/06/28 14:06:43;;;;;;;38.63;36.53;;;;;;;;;;5049734;28;20137;-66
2022/06/28 14:09:09;;;;;;;34.88;33.08;;;;;;;;;;5051470;28;20041;-65
2022/06/28 14:11:34;;;;;;;34.65;32.85;;;;;;;;;;5050025;28;20521;-65
2022/06/28 14:14:00;;;;;;;34.40;32.60;;;;;;;;;;5048864;28;20026;-66
2022/06/28 14:16:25;;;;;;;29.27;27.77;;;;;;;;;;5049027;28;20403;-65
2022/06/28 14:18:50;;;;;;;37.97;36.08;;;;;;;;;;5051107;28;20043;-66
2022/06/28 14:21:16;;;;;;;34.40;32.63;;;;;;;;;;5049853;28;20037;-66
2022/06/28 14:23:41;;;;;;;33.00;31.30;;;;;;;;;;5049206;28;20029;-66
2022/06/28 14:26:06;;;;;;;44.15;41.95;;;;;;;;;;5049426;28;20116;-66
2022/06/28 14:28:32;;;;;;;42.92;40.72;;;;;;;;;;5049486;28;20827;-66
2022/06/28 14:30:58;;;;;;;35.63;33.80;;;;;;;;;;5050128;28;20037;-65
2022/06/28 14:33:23;;;;;;;37.15;35.05;;;;;;;;;;5053093;28;20098;-67
2022/06/28 14:35:49;;;;;;;46.08;43.72;;;;;;;;;;5056405;28;20026;-67
2022/06/28 14:38:18;;;;;;;34.00;32.22;;;;;;;;;;5057304;28;20370;-66
2022/06/28 14:40:43;;;;;;;39.05;37.05;;;;;;;;;;5054847;28;20040;-66
2022/06/28 14:43:09;;;;;;;32.85;31.15;;;;;;;;;;5054524;28;20044;-66